createdAt,value
2018-12-11T00:02:09.869Z,101903.92
2018-12-11T00:04:40.688Z,101902.61
2018-12-11T00:07:09.589Z,101910.86
2018-12-11T00:09:38.477Z,101903.00
2018-12-11T00:12:07.378Z,101897.38
2018-12-11T00:14:36.363Z,101902.48
2018-12-11T00:17:05.314Z,101906.75
2018-12-11T00:19:34.144Z,101907.54
2018-12-11T00:22:03.355Z,101899.98
2018-12-11T00:24:32.328Z,101900.38
2018-12-11T00:27:01.221Z,101901.17
2018-12-11T00:29:30.220Z,101900.65
2018-12-11T00:31:59.080Z,101896.84
2018-12-11T00:34:28.410Z,101899.41
2018-12-11T00:36:58.220Z,101891.73
2018-12-11T00:39:27.159Z,101895.66
2018-12-11T00:41:55.993Z,101897.91
2018-12-11T00:44:24.884Z,101890.06
2018-12-11T00:46:53.888Z,101897.06
2018-12-11T00:49:22.869Z,101891.73
2018-12-11T00:51:52.305Z,101896.91
2018-12-11T00:54:21.155Z,101896.05
2018-12-11T00:56:50.089Z,101897.83
2018-12-11T00:59:18.913Z,101898.16
2018-12-11T01:01:47.752Z,101903.79
2018-12-11T01:04:16.616Z,101902.08
2018-12-11T01:06:45.513Z,101905.04
2018-12-11T01:09:14.528Z,101907.27
2018-12-11T01:11:44.605Z,101907.72
2018-12-11T01:14:13.504Z,101906.47
2018-12-11T01:16:42.516Z,101899.06
2018-12-11T01:19:11.392Z,101900.38
2018-12-11T01:27:45.201Z,101906.88
2018-12-11T01:30:15.181Z,101908.24
2018-12-11T01:32:44.042Z,101897.38
2018-12-11T01:35:12.947Z,101900.96
2018-12-11T01:37:41.828Z,101898.22
2018-12-11T01:40:10.849Z,101899.87
2018-12-11T01:42:39.724Z,101901.70
2018-12-11T01:45:08.709Z,101904.19
2018-12-11T01:47:37.741Z,101904.19
2018-12-11T01:50:06.913Z,101894.63
2018-12-11T01:52:35.797Z,101906.30
2018-12-11T01:55:04.808Z,101892.73
2018-12-11T01:57:34.216Z,101897.06
2018-12-11T02:00:03.290Z,101906.30
2018-12-11T02:02:32.112Z,101899.23
2018-12-11T02:05:00.929Z,101904.92
2018-12-11T02:07:29.857Z,101896.67
2018-12-11T02:09:58.747Z,101900.27
2018-12-11T02:12:27.602Z,101895.94
2018-12-11T02:14:56.421Z,101891.55
2018-12-11T02:17:25.313Z,101903.40
2018-12-11T02:19:54.189Z,101896.91
2018-12-11T02:22:23.090Z,101896.58
2018-12-11T02:24:51.922Z,101896.25
2018-12-11T02:27:20.761Z,101893.17
2018-12-11T02:29:49.653Z,101896.80
2018-12-11T02:32:19.457Z,101892.53
2018-12-11T02:34:48.494Z,101882.58
2018-12-11T02:37:17.468Z,101886.11
2018-12-11T02:39:46.377Z,101892.25
2018-12-11T02:42:15.347Z,101890.95
2018-12-11T02:44:44.251Z,101889.21
2018-12-11T02:47:13.129Z,101892.66
2018-12-11T02:49:42.001Z,101890.83
2018-12-11T02:52:11.012Z,101892.59
2018-12-11T02:54:39.880Z,101897.31
2018-12-11T02:57:08.790Z,101892.53
2018-12-11T02:59:37.896Z,101893.78
2018-12-11T03:02:07.440Z,101892.38
2018-12-11T03:04:36.797Z,101893.33
2018-12-11T03:07:05.793Z,101887.14
2018-12-11T03:09:34.665Z,101884.92
2018-12-11T03:12:03.679Z,101889.70
2018-12-11T03:14:32.659Z,101888.78
2018-12-11T03:17:01.540Z,101892.20
2018-12-11T03:19:31.472Z,101894.30
2018-12-11T03:22:00.309Z,101893.84
2018-12-11T03:24:29.127Z,101888.59
2018-12-11T03:26:58.029Z,101882.45
2018-12-11T03:29:26.902Z,101881.99
2018-12-11T03:31:55.910Z,101880.23
2018-12-11T03:34:24.907Z,101887.17
2018-12-11T03:36:54.845Z,101879.25
2018-12-11T03:39:23.805Z,101879.64
2018-12-11T03:41:52.748Z,101878.73
2018-12-11T03:44:21.561Z,101881.02
2018-12-11T03:46:50.481Z,101884.16
2018-12-11T03:49:19.365Z,101876.55
2018-12-11T03:51:48.265Z,101875.69
2018-12-11T03:54:17.187Z,101875.23
2018-12-11T03:56:46.069Z,101868.69
2018-12-11T03:59:15.149Z,101881.32
2018-12-11T04:01:44.333Z,101878.31
2018-12-11T04:04:13.322Z,101877.73
2018-12-11T04:06:42.310Z,101884.67
2018-12-11T04:09:11.209Z,101877.66
2018-12-11T04:11:40.340Z,101882.45
2018-12-11T04:14:09.216Z,101883.76
2018-12-11T04:16:38.132Z,101881.66
2018-12-11T04:19:06.994Z,101883.03
2018-12-11T04:21:35.870Z,101884.40
2018-12-11T04:24:04.989Z,101882.75
2018-12-11T04:26:35.900Z,101877.61
2018-12-11T04:29:04.905Z,101883.77
2018-12-11T04:31:33.707Z,101888.66
2018-12-11T04:34:02.610Z,101874.33
2018-12-11T04:36:31.545Z,101876.12
2018-12-11T04:39:00.577Z,101873.95
2018-12-11T04:41:30.461Z,101876.12
2018-12-11T04:43:59.350Z,101877.86
2018-12-11T04:46:28.257Z,101880.35
2018-12-11T04:48:57.132Z,101885.02
2018-12-11T04:51:25.964Z,101891.47
2018-12-11T04:53:54.784Z,101887.41
2018-12-11T04:56:22.939Z,101890.37
2018-12-11T04:58:51.877Z,101892.01
2018-12-11T05:01:22.029Z,101890.83
2018-12-11T05:03:50.989Z,101895.61
2018-12-11T05:06:19.890Z,101893.56
2018-12-11T05:08:48.765Z,101894.23
2018-12-11T05:11:17.681Z,101896.06
2018-12-11T05:13:46.550Z,101890.70
2018-12-11T05:16:15.441Z,101887.69
2018-12-11T05:18:44.256Z,101886.78
2018-12-11T05:21:13.145Z,101888.84
2018-12-11T05:23:42.027Z,101891.47
2018-12-11T05:26:10.897Z,101887.14
2018-12-11T05:28:40.304Z,101894.48
2018-12-11T05:31:09.325Z,101890.95
2018-12-11T05:33:38.289Z,101891.34
2018-12-11T05:36:07.189Z,101883.36
2018-12-11T05:38:36.174Z,101886.25
2018-12-11T05:41:05.093Z,101877.81
2018-12-11T05:43:34.191Z,101880.21
2018-12-11T05:46:03.119Z,101874.91
2018-12-11T05:48:32.213Z,101884.81
2018-12-11T05:51:01.066Z,101881.27
2018-12-11T05:53:29.338Z,101878.66
2018-12-11T05:55:58.394Z,101885.59
2018-12-11T05:58:30.279Z,101889.70
2018-12-11T06:00:59.474Z,101894.16
2018-12-11T06:03:28.374Z,101884.02
2018-12-11T06:05:57.297Z,101883.56
2018-12-11T06:08:26.245Z,101891.61
2018-12-11T06:10:55.058Z,101893.90
2018-12-11T06:13:23.901Z,101891.34
2018-12-11T06:15:52.809Z,101887.87
2018-12-11T06:18:21.703Z,101894.48
2018-12-11T06:20:50.525Z,101898.02
2018-12-11T06:23:19.377Z,101885.47
2018-12-11T06:25:48.262Z,101893.70
2018-12-11T06:28:17.164Z,101880.23
2018-12-11T06:30:46.049Z,101878.53
2018-12-11T06:33:14.937Z,101879.56
2018-12-11T06:35:43.825Z,101887.48
2018-12-11T06:38:12.730Z,101886.43
2018-12-11T06:40:41.602Z,101888.35
2018-12-11T06:43:10.492Z,101877.94
2018-12-11T06:45:39.380Z,101878.79
2018-12-11T06:48:08.293Z,101878.39
2018-12-11T06:50:37.185Z,101880.28
2018-12-11T06:53:06.060Z,101876.81
2018-12-11T06:55:34.945Z,101885.98
2018-12-11T06:58:03.944Z,101884.67
2018-12-11T07:00:32.842Z,101879.44
2018-12-11T07:03:01.728Z,101879.04
2018-12-11T07:05:30.609Z,101887.29
2018-12-11T07:07:59.500Z,101888.41
2018-12-11T07:10:28.489Z,101890.06
2018-12-11T07:12:57.393Z,101893.53
2018-12-11T07:15:26.225Z,101891.21
2018-12-11T07:17:55.173Z,101890.23
2018-12-11T07:20:24.005Z,101897.58
2018-12-11T07:22:52.845Z,101888.80
2018-12-11T07:25:21.729Z,101896.66
2018-12-11T07:27:50.624Z,101894.23
2018-12-11T07:30:19.505Z,101896.45
2018-12-11T07:32:48.409Z,101898.83
2018-12-11T07:35:17.236Z,101897.25
2018-12-11T07:37:46.304Z,101893.77
2018-12-11T07:40:15.309Z,101900.72
2018-12-11T07:42:44.184Z,101898.95
2018-12-11T07:45:13.120Z,101903.67
2018-12-11T07:47:41.942Z,101901.57
2018-12-11T07:50:10.848Z,101898.55
2018-12-11T07:52:39.666Z,101899.08
2018-12-11T07:55:08.523Z,101903.52
2018-12-11T07:57:37.412Z,101897.61
2018-12-11T08:00:07.326Z,101899.99
2018-12-11T08:02:35.704Z,101907.45
2018-12-11T08:05:04.765Z,101910.98
2018-12-11T08:07:33.599Z,101913.69
2018-12-11T08:10:02.585Z,101909.36
2018-12-11T08:12:31.537Z,101911.19
2018-12-11T08:15:00.308Z,101913.66
2018-12-11T08:17:29.257Z,101911.98
2018-12-11T08:19:58.153Z,101918.07
2018-12-11T08:22:27.137Z,101917.28
2018-12-11T08:24:56.030Z,101923.37
2018-12-11T08:27:24.848Z,101926.84
2018-12-11T08:29:53.718Z,101922.83
2018-12-11T08:32:22.612Z,101926.23
2018-12-11T08:34:52.602Z,101920.36
2018-12-11T08:37:21.621Z,101919.75
2018-12-11T08:39:50.500Z,101927.37
2018-12-11T08:42:19.518Z,101917.68
2018-12-11T08:44:51.213Z,101923.16
2018-12-11T08:47:19.152Z,101929.07
2018-12-11T08:49:47.955Z,101924.63
2018-12-11T08:52:16.824Z,101927.06
2018-12-11T08:54:45.681Z,101933.39
2018-12-11T08:57:14.580Z,101930.12
2018-12-11T08:59:43.476Z,101932.10
2018-12-11T09:02:13.100Z,101937.22
2018-12-11T09:04:41.944Z,101933.64
2018-12-11T09:07:10.841Z,101940.20
2018-12-11T09:09:39.680Z,101934.95
2018-12-11T09:12:08.620Z,101934.83
2018-12-11T09:14:37.642Z,101936.81
2018-12-11T09:17:10.309Z,101936.41
2018-12-11T09:19:37.457Z,101942.37
2018-12-11T09:22:06.438Z,101937.08
2018-12-11T09:24:35.348Z,101940.61
2018-12-11T09:27:04.456Z,101938.84
2018-12-11T09:29:33.417Z,101940.61
2018-12-11T09:32:02.581Z,101947.23
2018-12-11T09:34:31.632Z,101950.30
2018-12-11T09:37:00.493Z,101946.89
2018-12-11T09:39:29.457Z,101953.05
2018-12-11T09:41:58.562Z,101953.84
2018-12-11T09:44:27.809Z,101960.27
2018-12-11T09:46:57.264Z,101958.89
2018-12-11T09:49:26.234Z,101950.58
2018-12-11T09:51:55.216Z,101957.92
2018-12-11T09:54:25.982Z,101963.52
2018-12-11T09:56:54.891Z,101959.98
2018-12-11T09:59:23.773Z,101966.54
2018-12-11T10:01:52.708Z,101967.00
2018-12-11T10:04:21.567Z,101961.45
2018-12-11T10:06:50.593Z,101964.83
2018-12-11T10:09:19.449Z,101958.73
2018-12-11T10:11:48.446Z,101964.31
2018-12-11T10:14:17.352Z,101962.09
2018-12-11T10:16:46.184Z,101964.25
2018-12-11T10:19:15.115Z,101960.54
2018-12-11T10:21:43.950Z,101958.89
2018-12-11T10:24:12.784Z,101968.26
2018-12-11T10:26:41.702Z,101959.86
2018-12-11T10:29:10.898Z,101967.41
2018-12-11T10:31:39.883Z,101954.89
2018-12-11T10:34:08.713Z,101963.09
2018-12-11T10:36:37.661Z,101954.61
2018-12-11T10:39:07.704Z,101958.81
2018-12-11T10:41:38.512Z,101965.12
2018-12-11T10:44:07.400Z,101959.98
2018-12-11T10:46:36.210Z,101955.67
2018-12-11T10:49:05.033Z,101953.94
2018-12-11T10:51:33.863Z,101958.34
2018-12-11T10:54:02.736Z,101954.83
2018-12-11T10:56:31.584Z,101957.42
2018-12-11T10:59:00.405Z,101960.43
2018-12-11T11:01:31.220Z,101955.67
2018-12-11T11:04:00.263Z,101947.98
2018-12-11T11:06:29.158Z,101954.30
2018-12-11T11:08:58.669Z,101952.53
2018-12-11T11:11:27.501Z,101954.08
2018-12-11T11:13:56.388Z,101951.20
2018-12-11T11:16:25.340Z,101944.59
2018-12-11T11:18:54.212Z,101938.48
2018-12-11T11:21:23.108Z,101941.11
2018-12-11T11:23:52.001Z,101944.69
2018-12-11T11:26:20.807Z,101937.17
2018-12-11T11:28:50.701Z,101936.81
2018-12-11T11:31:20.617Z,101929.23
2018-12-11T11:33:56.446Z,101929.03
2018-12-11T11:36:20.650Z,101928.76
2018-12-11T11:38:49.537Z,101927.92
2018-12-11T11:41:18.393Z,101922.07
2018-12-11T11:43:47.308Z,101926.93
2018-12-11T11:46:16.216Z,101931.12
2018-12-11T11:48:45.201Z,101921.93
2018-12-11T11:51:14.098Z,101922.07
2018-12-11T11:53:42.953Z,101921.95
2018-12-11T11:56:12.403Z,101920.88
2018-12-11T11:58:41.384Z,101925.88
2018-12-11T12:01:10.498Z,101922.74
2018-12-11T12:03:39.328Z,101921.34
2018-12-11T12:06:08.135Z,101930.12
2018-12-11T12:08:37.043Z,101923.51
2018-12-11T12:11:06.044Z,101921.89
2018-12-11T12:13:34.853Z,101918.00
2018-12-11T12:16:03.897Z,101915.24
2018-12-11T12:18:32.736Z,101913.54
2018-12-11T12:21:02.618Z,101914.59
2018-12-11T12:23:31.461Z,101913.22
2018-12-11T12:26:00.436Z,101908.69
2018-12-11T12:28:29.272Z,101907.38
2018-12-11T12:31:00.086Z,101911.19
2018-12-11T12:33:28.924Z,101906.36
2018-12-11T12:35:57.757Z,101906.32
2018-12-11T12:38:27.121Z,101915.83
2018-12-11T12:40:56.027Z,101923.63
2018-12-11T12:43:24.884Z,101928.05
2018-12-11T12:45:53.831Z,101930.92
2018-12-11T12:48:23.398Z,101932.11
2018-12-11T12:50:53.291Z,101923.53
2018-12-11T12:53:22.165Z,101923.23
2018-12-11T12:55:51.090Z,101931.48
2018-12-11T12:58:19.981Z,101927.72
2018-12-11T13:00:49.083Z,101923.86
2018-12-11T13:03:18.237Z,101921.30
2018-12-11T13:05:47.935Z,101916.12
2018-12-11T13:08:16.865Z,101926.02
2018-12-11T13:10:45.738Z,101922.84
2018-12-11T13:13:14.618Z,101920.48
2018-12-11T13:15:43.706Z,101916.87
2018-12-11T13:18:13.684Z,101917.72
2018-12-11T13:20:43.008Z,101914.96
2018-12-11T13:23:11.829Z,101913.06
2018-12-11T13:25:40.733Z,101915.05
2018-12-11T13:28:09.631Z,101900.95
2018-12-11T13:30:38.450Z,101903.38
2018-12-11T13:33:08.088Z,101896.83
2018-12-11T13:35:36.967Z,101895.88
2018-12-11T13:38:05.865Z,101901.99
2018-12-11T13:40:35.177Z,101911.50
2018-12-11T13:43:04.252Z,101899.05
2018-12-11T13:45:33.101Z,101897.55
2018-12-11T13:48:01.993Z,101890.77
2018-12-11T13:50:30.882Z,101895.31
2018-12-11T13:53:00.705Z,101888.49
2018-12-11T13:55:29.522Z,101892.04
2018-12-11T13:57:58.386Z,101894.44
2018-12-11T14:00:28.265Z,101893.80
2018-12-11T14:02:57.085Z,101883.05
2018-12-11T14:05:25.906Z,101892.55
2018-12-11T14:07:54.844Z,101896.16
2018-12-11T14:10:23.748Z,101896.48
2018-12-11T14:12:52.729Z,101899.83
2018-12-11T14:15:21.057Z,101895.42
2018-12-11T14:17:49.925Z,101895.19
2018-12-11T14:20:18.741Z,101898.59
2018-12-11T14:22:47.569Z,101894.20
2018-12-11T14:25:16.396Z,101894.13
2018-12-11T14:27:45.218Z,101897.15
2018-12-11T14:30:14.364Z,101891.51
2018-12-11T14:32:43.181Z,101893.28
2018-12-11T14:35:12.429Z,101888.49
2018-12-11T14:37:41.404Z,101880.16
2018-12-11T14:40:10.521Z,101890.66
2018-12-11T14:42:40.502Z,101886.19
2018-12-11T14:45:09.553Z,101889.28
2018-12-11T14:47:38.392Z,101884.48
2018-12-11T14:50:08.875Z,101881.47
2018-12-11T14:52:37.921Z,101888.10
2018-12-11T14:55:07.061Z,101880.16
2018-12-11T14:57:35.872Z,101880.23
2018-12-11T15:00:06.174Z,101870.20
2018-12-11T15:02:35.329Z,101877.22
2018-12-11T15:05:05.168Z,101878.59
2018-12-11T15:07:34.201Z,101876.47
2018-12-11T15:10:03.461Z,101882.24
2018-12-11T15:12:32.364Z,101888.87
2018-12-11T15:15:01.227Z,101886.78
2018-12-11T15:17:30.137Z,101897.27
2018-12-11T15:19:58.961Z,101892.69
2018-12-11T15:22:27.828Z,101889.21
2018-12-11T15:24:56.853Z,101894.45
2018-12-11T15:27:26.112Z,101897.54
2018-12-11T15:29:55.210Z,101901.02
2018-12-11T15:32:24.150Z,101898.39
2018-12-11T15:34:53.002Z,101896.69
2018-12-11T15:37:21.893Z,101900.16
2018-12-11T15:39:50.769Z,101893.67
2018-12-11T15:42:19.601Z,101899.38
2018-12-11T15:44:48.580Z,101900.69
2018-12-11T15:47:17.558Z,101897.61
2018-12-11T15:49:46.505Z,101897.22
2018-12-11T15:52:15.328Z,101898.06
2018-12-11T15:54:44.277Z,101891.97
2018-12-11T15:57:14.002Z,101892.98
2018-12-11T15:59:42.870Z,101895.55
2018-12-11T16:02:11.741Z,101896.08
2018-12-11T16:04:41.286Z,101892.67
2018-12-11T16:07:10.190Z,101893.59
2018-12-11T16:09:39.069Z,101895.81
2018-12-11T16:12:07.952Z,101892.94
2018-12-11T16:14:36.770Z,101889.53
2018-12-11T16:17:05.757Z,101901.50
2018-12-11T16:19:34.849Z,101904.12
2018-12-11T16:22:04.024Z,101902.80
2018-12-11T16:24:33.167Z,101901.00
2018-12-11T16:27:02.054Z,101900.55
2018-12-11T16:29:31.746Z,101902.64
2018-12-11T16:32:00.611Z,101898.18
2018-12-11T16:34:29.534Z,101904.21
2018-12-11T16:36:58.365Z,101895.95
2018-12-11T16:39:27.346Z,101907.75
2018-12-11T16:41:56.284Z,101905.13
2018-12-11T16:44:25.562Z,101906.91
2018-12-11T16:46:54.461Z,101911.30
2018-12-11T16:49:23.369Z,101915.36
2018-12-11T16:51:53.176Z,101914.05
2018-12-11T16:54:22.092Z,101919.75
2018-12-11T16:56:51.076Z,101919.30
2018-12-11T16:59:20.044Z,101915.43
2018-12-11T17:01:48.949Z,101925.00
2018-12-11T17:04:17.829Z,101924.15
2018-12-11T17:06:46.744Z,101934.50
2018-12-11T17:09:16.112Z,101936.21
2018-12-11T17:11:45.034Z,101929.59
2018-12-11T17:14:13.905Z,101938.70
2018-12-11T17:16:42.716Z,101936.94
2018-12-11T17:19:11.588Z,101930.83
2018-12-11T17:21:46.802Z,101936.86
2018-12-11T17:24:11.505Z,101936.86
2018-12-11T17:26:40.532Z,101938.17
2018-12-11T17:29:10.409Z,101936.47
2018-12-11T17:31:39.234Z,101938.64
2018-12-11T17:34:09.013Z,101942.11
2018-12-11T17:36:37.821Z,101941.26
2018-12-11T17:39:07.718Z,101943.55
2018-12-11T17:41:38.554Z,101937.59
2018-12-11T17:44:07.388Z,101935.09
2018-12-11T17:46:36.224Z,101942.28
2018-12-11T17:49:05.124Z,101940.44
2018-12-11T17:51:34.013Z,101945.97
2018-12-11T17:54:02.907Z,101948.66
2018-12-11T17:56:32.096Z,101938.36
2018-12-11T17:59:01.267Z,101944.66
2018-12-11T18:01:32.060Z,101945.73
2018-12-11T18:04:00.894Z,101945.92
2018-12-11T18:06:29.808Z,101951.74
2018-12-11T18:08:58.714Z,101943.22
2018-12-11T18:11:27.616Z,101953.92
2018-12-11T18:13:56.534Z,101954.10
2018-12-11T18:16:25.380Z,101956.45
2018-12-11T18:18:54.372Z,101959.75
2018-12-11T18:21:23.375Z,101960.14
2018-12-11T18:23:52.471Z,101955.81
2018-12-11T18:26:21.428Z,101959.41
2018-12-11T18:28:51.424Z,101964.31
2018-12-11T18:31:20.227Z,101964.04
2018-12-11T18:33:49.056Z,101964.70
2018-12-11T18:36:18.161Z,101973.88
2018-12-11T18:38:47.980Z,101981.58
2018-12-11T18:41:17.581Z,101975.95
2018-12-11T18:43:46.457Z,101970.52
2018-12-11T18:46:15.285Z,101970.19
2018-12-11T18:48:44.183Z,101967.62
2018-12-11T18:51:13.147Z,101975.87
2018-12-11T18:53:42.021Z,101976.73
2018-12-11T18:56:10.888Z,101979.13
2018-12-11T18:58:39.896Z,101978.03
2018-12-11T19:01:08.750Z,101976.84
2018-12-11T19:03:38.625Z,101975.53
2018-12-11T19:06:07.493Z,101974.77
2018-12-11T19:08:36.365Z,101971.41
2018-12-11T19:11:05.261Z,101980.17
2018-12-11T19:13:36.036Z,101978.61
2018-12-11T19:16:04.984Z,101976.97
2018-12-11T19:18:33.885Z,101976.97
2018-12-11T19:21:02.891Z,101979.75
2018-12-11T19:23:38.509Z,101982.89
2018-12-11T19:26:07.522Z,101983.40
2018-12-11T19:28:36.374Z,101993.30
2018-12-11T19:31:05.261Z,101990.70
2018-12-11T19:33:36.073Z,101989.53
2018-12-11T19:36:05.045Z,101987.66
2018-12-11T19:38:35.905Z,101982.36
2018-12-11T19:41:04.830Z,101985.49
2018-12-11T19:43:33.645Z,101982.48
2018-12-11T19:46:02.521Z,101985.09
2018-12-11T19:48:31.809Z,101980.50
2018-12-11T19:51:00.617Z,101973.05
2018-12-11T19:53:29.521Z,101976.06
2018-12-11T19:55:58.411Z,101969.97
2018-12-11T19:58:27.385Z,101976.17
2018-12-11T20:00:56.273Z,101977.88
2018-12-11T20:03:25.191Z,101980.45
2018-12-11T20:05:53.997Z,101980.33
2018-12-11T20:08:22.868Z,101974.62
2018-12-11T20:10:53.776Z,101974.11
2018-12-11T20:13:22.684Z,101979.75
2018-12-11T20:15:51.575Z,101984.47
2018-12-11T20:18:20.561Z,101980.03
2018-12-11T20:20:49.601Z,101979.97
2018-12-11T20:23:18.480Z,101974.06
2018-12-11T20:25:47.413Z,101984.02
2018-12-11T20:28:16.261Z,101982.25
2018-12-11T20:30:45.225Z,101982.25
2018-12-11T20:33:14.053Z,101974.85
2018-12-11T20:35:43.005Z,101986.19
2018-12-11T20:38:11.894Z,101975.59
2018-12-11T20:40:40.777Z,101971.20
2018-12-11T20:43:09.744Z,101972.84
2018-12-11T20:45:38.620Z,101970.62
2018-12-11T20:48:07.456Z,101966.30
2018-12-11T20:50:36.357Z,101967.20
2018-12-11T20:53:05.593Z,101966.02
2018-12-11T20:55:34.536Z,101971.38
2018-12-11T20:58:03.528Z,101972.87
2018-12-11T21:00:34.533Z,101973.88
2018-12-11T21:03:03.677Z,101971.63
2018-12-11T21:05:32.593Z,101966.78
2018-12-11T21:08:01.566Z,101972.93
2018-12-11T21:10:30.437Z,101972.74
2018-12-11T21:12:59.330Z,101969.39
2018-12-11T21:15:28.153Z,101980.25
2018-12-11T21:17:57.032Z,101979.66
2018-12-11T21:20:25.912Z,101990.34
2018-12-11T21:22:54.782Z,101988.97
2018-12-11T21:25:23.621Z,101993.27
2018-12-11T21:27:52.457Z,101983.54
2018-12-11T21:30:21.344Z,101989.73
2018-12-11T21:32:50.239Z,101986.75
2018-12-11T21:35:19.124Z,101975.89
2018-12-11T21:37:47.964Z,101981.12
2018-12-11T21:40:16.941Z,101994.72
2018-12-11T21:42:45.824Z,101984.25
2018-12-11T21:45:14.684Z,101988.57
2018-12-11T21:47:43.509Z,101984.91
2018-12-11T21:50:12.681Z,101981.89
2018-12-11T21:52:41.560Z,101984.25
2018-12-11T21:55:10.460Z,101978.33
2018-12-11T21:57:40.468Z,101978.95
2018-12-11T22:00:11.000Z,101976.08
2018-12-11T22:02:39.816Z,101980.62
2018-12-11T22:05:09.817Z,101975.09
2018-12-11T22:07:38.721Z,101971.68
2018-12-11T22:10:07.901Z,101979.13
2018-12-11T22:12:36.785Z,101974.14
2018-12-11T22:15:06.194Z,101976.86
2018-12-11T22:17:35.197Z,101979.53
2018-12-11T22:20:05.219Z,101984.71
2018-12-11T22:22:34.101Z,101988.42
2018-12-11T22:25:02.997Z,101992.80
2018-12-11T22:27:31.893Z,101988.02
2018-12-11T22:30:00.760Z,101990.53
2018-12-11T22:32:29.786Z,101995.81
2018-12-11T22:34:58.745Z,101991.65
2018-12-11T22:37:27.753Z,101994.83
2018-12-11T22:39:56.659Z,101991.01
2018-12-11T22:42:25.453Z,101994.48
2018-12-11T22:44:54.923Z,101998.53
2018-12-11T22:47:23.827Z,101999.95
2018-12-11T22:49:53.829Z,101996.94
2018-12-11T22:52:22.709Z,101999.30
2018-12-11T22:54:51.613Z,102000.91
2018-12-11T22:57:20.501Z,101995.28
2018-12-11T22:59:49.325Z,101999.84
2018-12-11T23:02:18.142Z,102004.62
2018-12-11T23:04:46.966Z,102006.64
2018-12-11T23:07:15.840Z,102009.16
2018-12-11T23:09:45.129Z,102010.76
2018-12-11T23:12:14.149Z,102013.21
2018-12-11T23:14:43.048Z,102007.84
2018-12-11T23:17:11.926Z,102009.90
2018-12-11T23:19:40.816Z,102010.64
2018-12-11T23:22:09.717Z,102010.14
2018-12-11T23:24:38.809Z,102013.09
2018-12-11T23:27:07.823Z,102014.72
2018-12-11T23:29:36.689Z,102013.25
2018-12-11T23:32:05.705Z,102013.14
2018-12-11T23:34:34.586Z,102012.29
2018-12-11T23:37:03.509Z,102008.02
2018-12-11T23:39:33.477Z,102011.94
2018-12-11T23:42:02.369Z,102007.45
2018-12-11T23:44:32.178Z,102006.44
2018-12-11T23:47:01.081Z,102004.42
2018-12-11T23:49:29.990Z,101999.08
2018-12-11T23:51:58.850Z,102002.43
2018-12-11T23:54:27.712Z,102000.78
2018-12-11T23:56:57.149Z,101998.67
2018-12-11T23:59:29.067Z,101994.64
